Time;durP1;ratioP1;P1;durP2;ratioP2;P2;SDS_P1;SDS_P2;PMS_P1;PMS_P2;Temp;Humidity;BMP_temperature;BMP_pressure;BME280_temperature;BME280_humidity;BME280_pressure;Samples;Min_cycle;Max_cycle;Signal;HPM_P1;HPM_P2
2022/04/17 00:01:55;;;;;;;5.82;3.65;;;;;;;-155.54;100.00;57697.75;5040772;28;20093;-65
2022/04/17 00:04:20;;;;;;;4.55;3.00;;;;;;;-155.54;100.00;57697.75;4988202;28;20110;-65
2022/04/17 00:06:46;;;;;;;5.22;3.30;;;;;;;-155.54;100.00;57697.75;4984320;28;20137;-66
2022/04/17 00:09:12;;;;;;;5.90;3.28;;;;;;;-155.54;100.00;57697.75;5016233;28;20081;-65
2022/04/17 00:11:38;;;;;;;5.35;3.15;;;;;;;-155.54;100.00;57697.75;5030695;28;20113;-65
2022/04/17 00:14:03;;;;;;;5.75;3.33;;;;;;;-155.54;100.00;57697.75;5016841;28;20620;-65
2022/04/17 00:16:29;;;;;;;3.63;2.88;;;;;;;-155.54;100.00;57697.75;5031128;28;20210;-65
2022/04/17 00:18:54;;;;;;;4.22;3.00;;;;;;;-155.54;100.00;57697.75;5018833;28;20532;-65
2022/04/17 00:21:22;;;;;;;5.05;2.92;;;;;;;-155.54;100.00;57697.75;4984843;28;20086;-65
2022/04/17 00:23:48;;;;;;;4.73;2.87;;;;;;;-155.54;100.00;57697.75;4984036;28;20103;-65
2022/04/17 00:26:13;;;;;;;3.58;2.80;;;;;;;-155.54;100.00;57697.75;4991981;28;20082;-66
2022/04/17 00:28:39;;;;;;;3.92;2.80;;;;;;;-155.54;100.00;57697.75;5000899;28;20468;-65
2022/04/17 00:31:04;;;;;;;4.07;2.80;;;;;;;-155.54;100.00;57697.75;5006546;28;20128;-65
2022/04/17 00:33:31;;;;;;;5.90;3.58;;;;;;;-155.54;100.00;57697.75;5013793;28;20082;-65
2022/04/17 00:35:57;;;;;;;5.35;2.80;;;;;;;-155.54;100.00;57697.75;5030107;28;20289;-65
2022/04/17 00:38:22;;;;;;;3.97;2.80;;;;;;;-155.54;100.00;57697.75;5034856;28;20081;-65
2022/04/17 00:40:48;;;;;;;4.38;2.80;;;;;;;-155.54;100.00;57697.75;4989799;28;20580;-65
2022/04/17 00:43:26;;;;;;;4.28;2.92;;;;;;;-155.54;100.00;57697.75;4983482;28;20560;-65
2022/04/17 00:45:55;;;;;;;3.72;2.97;;;;;;;-155.54;100.00;57697.75;5001777;28;20527;-65
2022/04/17 00:48:20;;;;;;;5.07;2.72;;;;;;;-155.54;100.00;57697.75;4996182;28;20575;-65
2022/04/17 00:50:46;;;;;;;3.58;2.80;;;;;;;-155.54;100.00;57697.75;4995980;28;20101;-65
2022/04/17 00:53:14;;;;;;;3.97;2.67;;;;;;;-155.54;100.00;57697.75;4998347;28;20093;-66
2022/04/17 00:55:40;;;;;;;4.78;2.97;;;;;;;-155.54;100.00;57697.75;4973672;28;20261;-66
2022/04/17 00:58:06;;;;;;;4.63;3.22;;;;;;;-155.54;100.00;57697.75;4998225;28;20091;-66
2022/04/17 01:00:33;;;;;;;4.60;2.65;;;;;;;-155.54;100.00;57697.75;5007484;28;20183;-66
2022/04/17 01:03:01;;;;;;;4.55;3.03;;;;;;;-155.54;100.00;57697.75;5020048;28;20285;-66
2022/04/17 01:05:26;;;;;;;4.75;3.00;;;;;;;-155.54;100.00;57697.75;5022564;28;20077;-66
2022/04/17 01:07:52;;;;;;;3.75;2.88;;;;;;;-155.54;100.00;57697.75;5001337;28;20556;-65
2022/04/17 01:10:18;;;;;;;6.53;2.80;;;;;;;-155.54;100.00;57697.75;5008508;28;20285;-66
2022/04/17 01:12:44;;;;;;;3.80;2.50;;;;;;;-155.54;100.00;57697.75;5008705;28;20101;-65
2022/04/17 01:15:10;;;;;;;4.55;2.90;;;;;;;-155.54;100.00;57697.75;5021906;28;20139;-66
2022/04/17 01:17:36;;;;;;;6.28;3.08;;;;;;;-155.54;100.00;57697.75;5009643;28;20224;-66
2022/04/17 01:20:01;;;;;;;5.38;2.60;;;;;;;-155.54;100.00;57697.75;5022190;28;20098;-65
2022/04/17 01:22:27;;;;;;;3.38;2.70;;;;;;;-155.54;100.00;57697.75;5002974;28;20463;-65
2022/04/17 01:27:36;;;;;;;2.97;2.55;;;;;;;-155.54;100.00;57697.75;5008586;28;20156;-66
2022/04/17 01:30:02;;;;;;;5.45;2.88;;;;;;;-155.54;100.00;57697.75;5020580;28;20501;-66
2022/04/17 01:32:27;;;;;;;4.07;2.70;;;;;;;-155.54;100.00;57697.75;5007014;28;20126;-68
2022/04/17 01:34:53;;;;;;;5.55;2.90;;;;;;;-155.54;100.00;57697.75;5022076;28;20084;-68
2022/04/17 01:37:18;;;;;;;3.75;2.45;;;;;;;-155.54;100.00;57697.75;5009814;28;20082;-68
2022/04/17 01:39:43;;;;;;;3.70;2.47;;;;;;;-155.54;100.00;57697.75;5001808;28;20128;-68
2022/04/17 01:42:11;;;;;;;4.20;2.85;;;;;;;-155.54;100.00;57697.75;5018353;28;20082;-68
2022/04/17 01:44:36;;;;;;;4.88;2.65;;;;;;;-155.54;100.00;57697.75;5013478;28;20152;-68
2022/04/17 01:47:02;;;;;;;3.80;2.70;;;;;;;-155.54;100.00;57697.75;5016075;28;20110;-68
2022/04/17 01:49:28;;;;;;;3.88;2.83;;;;;;;-155.54;100.00;57697.75;5015810;28;20090;-68
2022/04/17 01:51:54;;;;;;;3.45;2.80;;;;;;;-155.54;100.00;57697.75;5018828;28;20502;-68
2022/04/17 01:54:20;;;;;;;4.95;2.88;;;;;;;-155.54;100.00;57697.75;5021206;28;20566;-68
2022/04/17 01:56:47;;;;;;;3.08;2.60;;;;;;;-155.54;100.00;57697.75;5017503;28;20276;-68
2022/04/17 01:59:13;;;;;;;3.35;2.70;;;;;;;-155.54;100.00;57697.75;5022141;28;20110;-68
2022/04/17 02:01:39;;;;;;;3.85;2.75;;;;;;;-155.54;100.00;57697.75;5015689;28;20589;-69
2022/04/17 02:04:05;;;;;;;4.05;2.55;;;;;;;-155.54;100.00;57697.75;5023862;28;20113;-68
2022/04/17 02:06:30;;;;;;;4.15;2.50;;;;;;;-155.54;100.00;57697.75;5025772;28;20572;-68
2022/04/17 02:08:56;;;;;;;6.07;2.55;;;;;;;-155.54;100.00;57697.75;5012634;28;20109;-68
2022/04/17 02:11:22;;;;;;;3.50;2.58;;;;;;;-155.54;100.00;57697.75;5025070;28;20100;-68
2022/04/17 02:13:48;;;;;;;3.53;2.42;;;;;;;-155.54;100.00;57697.75;5012750;28;20626;-68
2022/04/17 02:16:14;;;;;;;4.93;2.90;;;;;;;-155.54;100.00;57697.75;5025121;28;20101;-68
2022/04/17 02:18:40;;;;;;;3.97;2.60;;;;;;;-155.54;100.00;57697.75;5022411;28;20502;-68
2022/04/17 02:21:06;;;;;;;4.85;2.47;;;;;;;-155.54;100.00;57697.75;5005561;28;20106;-68
2022/04/17 02:23:32;;;;;;;2.97;2.28;;;;;;;-155.54;100.00;57697.75;4989818;28;20110;-68
2022/04/17 02:25:57;;;;;;;4.22;2.70;;;;;;;-155.54;100.00;57697.75;4984684;28;20081;-68
2022/04/17 02:28:22;;;;;;;6.00;2.80;;;;;;;-155.54;100.00;57697.75;5000757;28;20658;-67
2022/04/17 02:30:48;;;;;;;8.40;2.90;;;;;;;-155.54;100.00;57697.75;5026246;28;20129;-68
2022/04/17 02:33:13;;;;;;;4.13;2.67;;;;;;;-155.54;100.00;57697.75;5020865;28;20153;-68
2022/04/17 02:35:38;;;;;;;4.78;2.60;;;;;;;-155.54;100.00;57697.75;5026348;28;20772;-68
2022/04/17 02:38:04;;;;;;;4.00;2.50;;;;;;;-155.54;100.00;57697.75;5029276;28;20077;-68
2022/04/17 02:40:30;;;;;;;4.93;2.60;;;;;;;-155.54;100.00;57697.75;5038438;28;20121;-68
2022/04/17 02:42:56;;;;;;;3.10;2.22;;;;;;;-155.54;100.00;57697.75;5020592;28;20108;-68
2022/04/17 02:45:21;;;;;;;5.25;2.58;;;;;;;-155.54;100.00;57697.75;4993684;28;20083;-69
2022/04/17 02:47:48;;;;;;;3.17;2.40;;;;;;;-155.54;100.00;57697.75;4988055;28;20499;-69
2022/04/17 02:50:15;;;;;;;4.93;2.60;;;;;;;-155.54;100.00;57697.75;4998770;28;20082;-69
2022/04/17 02:52:41;;;;;;;6.38;2.45;;;;;;;-155.54;100.00;57697.75;5016019;28;20117;-69
2022/04/17 02:55:06;;;;;;;3.58;2.45;;;;;;;-155.54;100.00;57697.75;5020477;28;20412;-69
2022/04/17 02:57:32;;;;;;;3.92;2.60;;;;;;;-155.54;100.00;57697.75;5036923;28;20298;-69
2022/04/17 02:59:58;;;;;;;4.22;2.58;;;;;;;-155.54;100.00;57697.75;5023828;28;20594;-69
2022/04/17 03:07:52;;;;;;;2.50;2.30;;;;;;;-155.54;100.00;57697.75;4989185;28;20326;-69
2022/04/17 03:10:18;;;;;;;4.82;2.50;;;;;;;-155.54;100.00;57697.75;4994026;28;20108;-69
2022/04/17 03:12:43;;;;;;;3.97;2.40;;;;;;;-155.54;100.00;57697.75;4991197;28;20622;-69
2022/04/17 03:15:09;;;;;;;3.25;2.65;;;;;;;-155.54;100.00;57697.75;5013607;28;20108;-69
2022/04/17 03:17:34;;;;;;;2.97;2.45;;;;;;;-155.54;100.00;57697.75;5032895;28;20931;-69
2022/04/17 03:20:00;;;;;;;4.22;2.63;;;;;;;-155.54;100.00;57697.75;5012194;28;20118;-69
2022/04/17 03:22:25;;;;;;;2.78;2.38;;;;;;;-155.54;100.00;57697.75;4985144;28;20090;-69
2022/04/17 03:24:51;;;;;;;3.03;2.47;;;;;;;-155.54;100.00;57697.75;4993689;28;20179;-69
2022/04/17 03:27:16;;;;;;;3.85;2.50;;;;;;;-155.54;100.00;57697.75;4991079;28;20624;-69
2022/04/17 03:29:42;;;;;;;4.00;2.80;;;;;;;-155.54;100.00;57697.75;5004395;28;20125;-69
2022/04/17 03:32:07;;;;;;;6.22;2.65;;;;;;;-155.54;100.00;57697.75;4995585;28;20557;-69
2022/04/17 03:34:33;;;;;;;4.68;2.40;;;;;;;-155.54;100.00;57697.75;5003666;28;20078;-68
2022/04/17 03:36:58;;;;;;;3.95;2.40;;;;;;;-155.54;100.00;57697.75;5021674;28;20571;-67
2022/04/17 03:39:24;;;;;;;3.50;2.35;;;;;;;-155.54;100.00;57697.75;5008546;28;20105;-68
2022/04/17 03:41:53;;;;;;;3.58;2.40;;;;;;;-155.54;100.00;57697.75;5020252;28;20502;-68
2022/04/17 03:44:19;;;;;;;3.20;2.45;;;;;;;-155.54;100.00;57697.75;5015665;28;20489;-68
2022/04/17 03:46:45;;;;;;;2.95;2.38;;;;;;;-155.54;100.00;57697.75;5018189;28;20069;-68
2022/04/17 03:49:10;;;;;;;3.95;2.60;;;;;;;-155.54;100.00;57697.75;5017368;28;20479;-68
2022/04/17 03:51:36;;;;;;;2.95;2.33;;;;;;;-155.54;100.00;57697.75;5010089;28;20120;-68
2022/04/17 03:54:01;;;;;;;4.32;2.60;;;;;;;-155.54;100.00;57697.75;4999279;28;20083;-68
2022/04/17 03:56:27;;;;;;;2.90;2.42;;;;;;;-155.54;100.00;57697.75;4995213;28;20129;-68
2022/04/17 03:58:52;;;;;;;4.63;2.60;;;;;;;-155.54;100.00;57697.75;4999129;28;20078;-68
2022/04/17 04:01:18;;;;;;;3.92;2.80;;;;;;;-155.54;100.00;57697.75;4991123;28;20094;-68
2022/04/17 04:03:43;;;;;;;3.25;2.10;;;;;;;-155.54;100.00;57697.75;5018220;28;20139;-68
2022/04/17 04:06:09;;;;;;;5.07;2.97;;;;;;;-155.54;100.00;57697.75;5019195;28;20123;-68
2022/04/17 04:08:35;;;;;;;3.83;2.47;;;;;;;-155.54;100.00;57697.75;5024062;28;20583;-68
2022/04/17 04:11:00;;;;;;;4.15;2.53;;;;;;;-155.54;100.00;57697.75;5015389;28;20471;-68
2022/04/17 04:13:25;;;;;;;4.32;2.55;;;;;;;-155.54;100.00;57697.75;5016982;28;20085;-68
2022/04/17 04:15:51;;;;;;;3.33;2.22;;;;;;;-155.54;100.00;57697.75;5042299;28;20104;-68
2022/04/17 04:18:16;;;;;;;3.53;2.50;;;;;;;-155.54;100.00;57697.75;5027067;28;20558;-68
2022/04/17 04:20:42;;;;;;;3.28;2.60;;;;;;;-155.54;100.00;57697.75;4997958;28;20106;-68
2022/04/17 04:23:08;;;;;;;3.65;2.22;;;;;;;-155.54;100.00;57697.75;4983733;28;20121;-68
2022/04/17 04:25:34;;;;;;;3.85;2.40;;;;;;;-155.54;100.00;57697.75;4998075;28;20090;-68
2022/04/17 04:30:43;;;;;;;2.78;2.28;;;;;;;-155.54;100.00;57697.75;5002072;28;20863;-68
2022/04/17 04:33:09;;;;;;;2.70;2.33;;;;;;;-155.54;100.00;57697.75;4991409;28;20113;-68
2022/04/17 04:35:34;;;;;;;3.33;2.33;;;;;;;-155.54;100.00;57697.75;5002615;28;20156;-68
2022/04/17 04:38:01;;;;;;;4.05;2.60;;;;;;;-155.54;100.00;57697.75;4986384;28;20071;-68
2022/04/17 04:40:29;;;;;;;2.90;2.25;;;;;;;-155.54;100.00;57697.75;4985834;28;20381;-68
2022/04/17 04:43:00;;;;;;;3.17;2.40;;;;;;;-155.54;100.00;57697.75;5001545;28;20078;-68
2022/04/17 04:48:10;;;;;;;3.72;2.40;;;;;;;-155.54;100.00;57697.75;5010280;28;20262;-68
2022/04/17 04:50:35;;;;;;;3.38;2.40;;;;;;;-155.54;100.00;57697.75;4989232;28;20225;-68
2022/04/17 04:53:01;;;;;;;3.28;2.45;;;;;;;-155.54;100.00;57697.75;5002995;28;20097;-68
2022/04/17 04:55:27;;;;;;;5.03;2.47;;;;;;;-155.54;100.00;57697.75;4995886;28;20097;-68
2022/04/17 04:57:52;;;;;;;3.38;2.30;;;;;;;-155.54;100.00;57697.75;4998287;28;20086;-68
2022/04/17 05:00:18;;;;;;;4.57;2.30;;;;;;;-155.54;100.00;57697.75;5011649;28;20361;-68
2022/04/17 05:02:43;;;;;;;3.28;2.20;;;;;;;-155.54;100.00;57697.75;5015741;28;20087;-68
2022/04/17 05:05:09;;;;;;;2.80;2.30;;;;;;;-155.54;100.00;57697.75;5034647;28;20547;-68
2022/04/17 05:07:35;;;;;;;2.97;2.38;;;;;;;-155.54;100.00;57697.75;5021072;28;20388;-68
2022/04/17 05:10:01;;;;;;;3.58;2.30;;;;;;;-155.54;100.00;57697.75;5019023;28;20102;-68
2022/04/17 05:12:27;;;;;;;3.30;2.35;;;;;;;-155.54;100.00;57697.75;4988060;28;20571;-68
2022/04/17 05:14:53;;;;;;;6.10;2.47;;;;;;;-155.54;100.00;57697.75;4986113;28;20090;-68
2022/04/17 05:17:18;;;;;;;3.75;2.65;;;;;;;-155.54;100.00;57697.75;5022388;28;20070;-68
2022/04/17 05:19:44;;;;;;;3.03;2.40;;;;;;;-155.54;100.00;57697.75;5020954;28;20110;-68
2022/04/17 05:22:16;;;;;;;2.92;2.40;;;;;;;-155.54;100.00;57697.75;5012936;28;20093;-68
2022/04/17 05:24:42;;;;;;;3.25;2.20;;;;;;;-155.54;100.00;57697.75;5002359;28;20730;-68
2022/04/17 05:27:08;;;;;;;4.47;2.70;;;;;;;-155.54;100.00;57697.75;5017966;28;20116;-68
2022/04/17 05:29:33;;;;;;;3.85;2.30;;;;;;;-155.54;100.00;57697.75;5024742;28;20101;-68
2022/04/17 05:32:00;;;;;;;4.35;2.40;;;;;;;-155.54;100.00;57697.75;5024678;28;20178;-68
2022/04/17 05:34:25;;;;;;;3.25;2.45;;;;;;;-155.54;100.00;57697.75;5023166;28;20065;-68
2022/04/17 05:36:51;;;;;;;2.53;2.30;;;;;;;-155.54;100.00;57697.75;5024222;28;20148;-68
2022/04/17 05:39:16;;;;;;;3.47;2.50;;;;;;;-155.54;100.00;57697.75;5021163;28;20102;-68
2022/04/17 05:41:41;;;;;;;3.83;2.30;;;;;;;-155.54;100.00;57697.75;5025136;28;20082;-68
2022/04/17 05:44:07;;;;;;;3.97;1.98;;;;;;;-155.54;100.00;57697.75;5012339;28;20593;-68
2022/04/17 05:46:35;;;;;;;3.55;2.22;;;;;;;-155.54;100.00;57697.75;5024845;28;20074;-68
2022/04/17 05:49:02;;;;;;;3.35;2.28;;;;;;;-155.54;100.00;57697.75;5023948;28;20421;-68
2022/04/17 05:51:27;;;;;;;4.13;2.30;;;;;;;-155.54;100.00;57697.75;5019284;28;20169;-68
2022/04/17 05:53:52;;;;;;;2.97;2.38;;;;;;;-155.54;100.00;57697.75;5004639;28;20211;-68
2022/04/17 05:56:18;;;;;;;2.70;2.10;;;;;;;-155.54;100.00;57697.75;5029881;28;20097;-68
2022/04/17 05:58:43;;;;;;;4.35;2.20;;;;;;;-155.54;100.00;57697.75;5043973;28;20081;-68
2022/04/17 06:01:09;;;;;;;5.13;2.40;;;;;;;-155.54;100.00;57697.75;5032347;28;20120;-68
2022/04/17 06:03:34;;;;;;;4.05;2.40;;;;;;;-155.54;100.00;57697.75;5002002;28;20807;-68
2022/04/17 06:06:00;;;;;;;7.45;2.55;;;;;;;-155.54;100.00;57697.75;4985360;28;20135;-68
2022/04/17 06:08:25;;;;;;;3.63;2.30;;;;;;;-155.54;100.00;57697.75;5012728;28;20341;-68
2022/04/17 06:10:51;;;;;;;3.45;2.30;;;;;;;-155.54;100.00;57697.75;5023895;28;20086;-68
2022/04/17 06:13:16;;;;;;;2.70;2.20;;;;;;;-155.54;100.00;57697.75;5024338;28;20074;-68
2022/04/17 06:15:42;;;;;;;3.85;2.30;;;;;;;-155.54;100.00;57697.75;5015558;28;20102;-68
2022/04/17 06:18:07;;;;;;;2.63;2.13;;;;;;;-155.54;100.00;57697.75;5004599;28;20373;-68
2022/04/17 06:20:32;;;;;;;3.35;2.10;;;;;;;-155.54;100.00;57697.75;5003558;28;20094;-68
2022/04/17 06:22:58;;;;;;;3.60;2.17;;;;;;;-155.54;100.00;57697.75;5007806;28;20121;-68
2022/04/17 06:25:23;;;;;;;3.40;2.20;;;;;;;-155.54;100.00;57697.75;5013396;28;20067;-68
2022/04/17 06:27:49;;;;;;;3.17;2.28;;;;;;;-155.54;100.00;57697.75;4999294;28;20098;-68
2022/04/17 06:30:15;;;;;;;3.95;2.30;;;;;;;-155.54;100.00;57697.75;4985347;28;20404;-68
2022/04/17 06:32:41;;;;;;;3.25;2.10;;;;;;;-155.54;100.00;57697.75;4991304;28;20122;-68
2022/04/17 06:35:09;;;;;;;2.60;2.20;;;;;;;-155.54;100.00;57697.75;4996241;28;20112;-69
2022/04/17 06:37:56;;;;;;;4.27;2.60;;;;;;;-155.54;100.00;57697.75;4999029;28;20579;-68
2022/04/17 06:40:32;;;;;;;2.20;1.90;;;;;;;-155.54;100.00;57697.75;5012689;28;20499;-68
2022/04/17 06:42:58;;;;;;;4.05;2.00;;;;;;;-155.54;100.00;57697.75;5015671;28;20183;-68
2022/04/17 06:45:25;;;;;;;3.17;1.90;;;;;;;-155.54;100.00;57697.75;4997942;28;20070;-68
2022/04/17 06:47:50;;;;;;;2.33;2.10;;;;;;;-155.54;100.00;57697.75;4995228;28;20141;-69
2022/04/17 06:50:16;;;;;;;4.03;2.20;;;;;;;-155.54;100.00;57697.75;4999457;28;20471;-68
2022/04/17 06:52:41;;;;;;;2.95;2.20;;;;;;;-155.54;100.00;57697.75;4998970;28;20370;-69
2022/04/17 06:55:08;;;;;;;3.35;2.08;;;;;;;-155.54;100.00;57697.75;4998805;28;20110;-68
2022/04/17 06:57:34;;;;;;;3.47;2.10;;;;;;;-155.54;100.00;57697.75;4999412;28;20140;-69
2022/04/17 07:00:07;;;;;;;3.45;2.10;;;;;;;-155.54;100.00;57697.75;4999027;28;20109;-69
2022/04/17 07:02:32;;;;;;;4.05;2.22;;;;;;;-155.54;100.00;57697.75;4999797;28;20302;-69
2022/04/17 07:04:58;;;;;;;3.08;1.95;;;;;;;-155.54;100.00;57697.75;4998761;28;20604;-69
2022/04/17 07:07:23;;;;;;;3.40;2.03;;;;;;;-155.54;100.00;57697.75;4998649;28;20494;-69
2022/04/17 07:09:48;;;;;;;2.70;2.00;;;;;;;-155.54;100.00;57697.75;4997767;28;20093;-68
2022/04/17 07:12:14;;;;;;;2.80;2.15;;;;;;;-155.54;100.00;57697.75;4998869;28;20098;-69
2022/04/17 07:14:40;;;;;;;2.72;2.05;;;;;;;-155.54;100.00;57697.75;4998888;28;20105;-69
2022/04/17 07:17:06;;;;;;;3.25;2.05;;;;;;;-155.54;100.00;57697.75;5008577;28;20121;-69
2022/04/17 07:19:31;;;;;;;3.03;2.30;;;;;;;-155.54;100.00;57697.75;5012951;28;20102;-69
2022/04/17 07:21:56;;;;;;;4.40;2.28;;;;;;;-155.54;100.00;57697.75;4980445;28;20091;-68
2022/04/17 07:24:24;;;;;;;3.88;2.08;;;;;;;-155.54;100.00;57697.75;4994288;28;20106;-68
2022/04/17 07:26:53;;;;;;;2.67;2.00;;;;;;;-155.54;100.00;57697.75;4986890;28;20452;-68
2022/04/17 07:29:22;;;;;;;2.75;1.95;;;;;;;-155.54;100.00;57697.75;4999625;28;20105;-69
2022/04/17 07:31:50;;;;;;;3.17;2.00;;;;;;;-155.54;100.00;57697.75;4999508;28;20192;-69
2022/04/17 07:34:17;;;;;;;2.50;2.00;;;;;;;-155.54;100.00;57697.75;4999448;28;20486;-69
2022/04/17 07:36:43;;;;;;;3.47;1.95;;;;;;;-155.54;100.00;57697.75;4998761;28;20111;-69
2022/04/17 07:39:08;;;;;;;3.03;2.03;;;;;;;-155.54;100.00;57697.75;4988570;28;20103;-69
2022/04/17 07:41:33;;;;;;;3.50;2.00;;;;;;;-155.54;100.00;57697.75;4990933;28;20107;-69
2022/04/17 07:43:59;;;;;;;4.75;2.03;;;;;;;-155.54;100.00;57697.75;4997626;28;20500;-69
2022/04/17 07:46:24;;;;;;;3.95;2.08;;;;;;;-155.54;100.00;57697.75;4989677;28;20075;-68
2022/04/17 07:48:50;;;;;;;3.28;1.92;;;;;;;-155.54;100.00;57697.75;4990577;28;20586;-69
2022/04/17 07:51:15;;;;;;;3.05;1.85;;;;;;;-155.54;100.00;57697.75;4992242;28;20112;-69
2022/04/17 07:53:41;;;;;;;3.63;2.10;;;;;;;-155.54;100.00;57697.75;4998235;28;20331;-69
2022/04/17 07:56:06;;;;;;;4.20;2.00;;;;;;;-155.54;100.00;57697.75;4996110;28;20106;-69
2022/04/17 07:58:34;;;;;;;3.83;1.90;;;;;;;-155.54;100.00;57697.75;4999782;28;20087;-69
2022/04/17 08:01:09;;;;;;;2.17;1.92;;;;;;;-155.54;100.00;57697.75;5012880;28;20192;-68
2022/04/17 08:03:45;;;;;;;3.13;2.10;;;;;;;-155.54;100.00;57697.75;5019732;28;20127;-69
2022/04/17 08:06:12;;;;;;;4.60;2.20;;;;;;;-155.54;100.00;57697.75;5035331;28;20074;-69
2022/04/17 08:08:39;;;;;;;2.90;1.90;;;;;;;-155.54;100.00;57697.75;5011069;28;20093;-69
2022/04/17 08:11:04;;;;;;;4.25;2.03;;;;;;;-155.54;100.00;57697.75;5006680;28;20116;-68
2022/04/17 08:13:30;;;;;;;3.25;2.20;;;;;;;-155.54;100.00;57697.75;4986997;28;20073;-69
2022/04/17 08:15:55;;;;;;;3.28;1.98;;;;;;;-155.54;100.00;57697.75;4997242;28;20094;-69
2022/04/17 08:18:21;;;;;;;2.00;1.70;;;;;;;-155.54;100.00;57697.75;5018021;28;20075;-69
2022/04/17 08:20:46;;;;;;;4.00;2.15;;;;;;;-155.54;100.00;57697.75;5017327;28;20108;-69
2022/04/17 08:23:12;;;;;;;6.72;2.08;;;;;;;-155.54;100.00;57697.75;5017596;28;20088;-68
2022/04/17 08:25:38;;;;;;;3.00;1.85;;;;;;;-155.54;100.00;57697.75;5017414;28;20081;-68
2022/04/17 08:28:04;;;;;;;2.40;1.80;;;;;;;-155.54;100.00;57697.75;5005465;28;20107;-69
2022/04/17 08:30:30;;;;;;;2.65;1.90;;;;;;;-155.54;100.00;57697.75;4997766;28;20116;-69
2022/04/17 08:32:56;;;;;;;2.22;2.03;;;;;;;-155.54;100.00;57697.75;4997701;28;20120;-68
2022/04/17 08:35:22;;;;;;;3.17;1.80;;;;;;;-155.54;100.00;57697.75;4996046;28;20099;-69
2022/04/17 08:37:47;;;;;;;4.47;1.80;;;;;;;-155.54;100.00;57697.75;4994508;28;20077;-69
2022/04/17 08:40:13;;;;;;;1.88;1.73;;;;;;;-155.54;100.00;57697.75;4997171;28;20470;-69
2022/04/17 08:42:39;;;;;;;2.80;1.90;;;;;;;-155.54;100.00;57697.75;4998113;28;20604;-67
2022/04/17 08:45:05;;;;;;;3.55;1.90;;;;;;;-155.54;100.00;57697.75;4997201;28;20098;-68
2022/04/17 08:47:31;;;;;;;3.28;1.90;;;;;;;-155.54;100.00;57697.75;4996996;28;20460;-69
2022/04/17 08:49:56;;;;;;;5.40;1.70;;;;;;;-155.54;100.00;57697.75;4995331;28;20082;-69
2022/04/17 08:52:22;;;;;;;2.50;1.85;;;;;;;-155.54;100.00;57697.75;4997246;28;20092;-69
2022/04/17 08:54:48;;;;;;;3.47;1.88;;;;;;;-155.54;100.00;57697.75;4993743;28;20768;-69
2022/04/17 08:57:13;;;;;;;2.35;2.00;;;;;;;-155.54;100.00;57697.75;4997613;28;20087;-68
2022/04/17 08:59:39;;;;;;;4.13;1.80;;;;;;;-155.54;100.00;57697.75;4997249;28;20093;-70
2022/04/17 09:02:06;;;;;;;3.08;2.10;;;;;;;-155.54;100.00;57697.75;4997008;28;20442;-69
2022/04/17 09:04:32;;;;;;;2.13;1.50;;;;;;;-155.54;100.00;57697.75;4998314;28;20113;-69
2022/04/17 09:06:57;;;;;;;3.08;1.80;;;;;;;-155.54;100.00;57697.75;4997236;28;20061;-69
2022/04/17 09:09:22;;;;;;;2.33;1.85;;;;;;;-155.54;100.00;57697.75;4988335;28;20137;-69
2022/04/17 09:11:48;;;;;;;2.78;2.00;;;;;;;-155.54;100.00;57697.75;4997081;28;20102;-69
2022/04/17 09:14:14;;;;;;;2.13;1.63;;;;;;;-155.54;100.00;57697.75;4979438;28;20084;-68
2022/04/17 09:16:39;;;;;;;3.17;2.00;;;;;;;-155.54;100.00;57697.75;4995263;28;20299;-69
2022/04/17 09:19:18;;;;;;;2.78;1.83;;;;;;;-155.54;100.00;57697.75;4994760;28;20096;-69
2022/04/17 09:21:43;;;;;;;2.22;1.90;;;;;;;-155.54;100.00;57697.75;4995682;28;20510;-70
2022/04/17 09:24:18;;;;;;;3.70;1.80;;;;;;;-155.54;100.00;57697.75;4997431;28;20093;-69
2022/04/17 09:26:54;;;;;;;1.90;1.70;;;;;;;-155.54;100.00;57697.75;4995946;28;20695;-68
2022/04/17 09:29:39;;;;;;;3.35;1.80;;;;;;;-155.54;100.00;57697.75;4997850;28;20107;-69
2022/04/17 09:32:08;;;;;;;2.53;1.90;;;;;;;-155.54;100.00;57697.75;4995809;28;20471;-69
2022/04/17 09:34:50;;;;;;;3.15;2.10;;;;;;;-155.54;100.00;57697.75;4997543;28;20746;-68
2022/04/17 09:37:19;;;;;;;2.95;1.92;;;;;;;-155.54;100.00;57697.75;5014361;28;20108;-69
2022/04/17 09:39:45;;;;;;;3.22;1.70;;;;;;;-155.54;100.00;57697.75;5014688;28;20088;-69
2022/04/17 09:42:11;;;;;;;2.10;1.88;;;;;;;-155.54;100.00;57697.75;5016225;28;20390;-69
2022/04/17 09:44:46;;;;;;;2.50;1.67;;;;;;;-155.54;100.00;57697.75;5015654;28;20091;-69
2022/04/17 09:47:25;;;;;;;4.38;2.00;;;;;;;-155.54;100.00;57697.75;5017997;28;20090;-69
2022/04/17 09:50:00;;;;;;;2.05;1.85;;;;;;;-155.54;100.00;57697.75;5009483;28;20166;-70
2022/04/17 09:52:27;;;;;;;2.53;1.80;;;;;;;-155.54;100.00;57697.75;5004779;28;20104;-69
2022/04/17 09:54:52;;;;;;;2.88;1.83;;;;;;;-155.54;100.00;57697.75;5015168;28;20224;-70
2022/04/17 09:57:19;;;;;;;2.45;1.98;;;;;;;-155.54;100.00;57697.75;4985395;28;20565;-69
2022/04/17 09:59:45;;;;;;;2.75;1.50;;;;;;;-155.54;100.00;57697.75;4997893;28;20670;-68
2022/04/17 10:02:12;;;;;;;2.72;1.63;;;;;;;-155.54;100.00;57697.75;4985744;28;20531;-69
2022/04/17 10:04:38;;;;;;;4.78;2.00;;;;;;;-155.54;100.00;57697.75;5027856;28;20089;-70
2022/04/17 10:07:04;;;;;;;2.53;1.80;;;;;;;-155.54;100.00;57697.75;5002161;28;20078;-69
2022/04/17 10:09:29;;;;;;;2.60;1.80;;;;;;;-155.54;100.00;57697.75;4990560;28;20477;-69
2022/04/17 10:11:59;;;;;;;2.60;1.63;;;;;;;-155.54;100.00;57697.75;4991424;28;20095;-70
2022/04/17 10:14:27;;;;;;;3.47;1.80;;;;;;;-155.54;100.00;57697.75;5013684;28;20356;-69
2022/04/17 10:16:53;;;;;;;2.93;1.73;;;;;;;-155.54;100.00;57697.75;4984550;28;20460;-70
2022/04/17 10:19:25;;;;;;;2.10;1.58;;;;;;;-155.54;100.00;57697.75;4987254;28;20107;-70
2022/04/17 10:21:51;;;;;;;3.25;1.90;;;;;;;-155.54;100.00;57697.75;5019459;28;20586;-70
2022/04/17 10:24:21;;;;;;;2.88;1.67;;;;;;;-155.54;100.00;57697.75;5033561;28;20169;-70
2022/04/17 10:26:50;;;;;;;2.13;1.73;;;;;;;-155.54;100.00;57697.75;5028068;28;20135;-69
2022/04/17 10:29:24;;;;;;;3.28;1.75;;;;;;;-155.54;100.00;57697.75;4981649;28;20058;-69
2022/04/17 10:31:56;;;;;;;1.73;1.52;;;;;;;-155.54;100.00;57697.75;4989326;28;20571;-69
2022/04/17 10:34:39;;;;;;;3.38;1.90;;;;;;;-155.54;100.00;57697.75;5019754;28;20428;-70
2022/04/17 10:37:40;;;;;;;1.75;1.50;;;;;;;-155.54;100.00;57697.75;5006957;28;20117;-69
2022/04/17 10:40:08;;;;;;;1.63;1.52;;;;;;;-155.54;100.00;57697.75;5011112;28;20086;-69
2022/04/17 10:42:35;;;;;;;2.15;1.67;;;;;;;-155.54;100.00;57697.75;5014187;28;20521;-68
2022/04/17 10:45:05;;;;;;;1.95;1.35;;;;;;;-155.54;100.00;57697.75;5010922;28;20076;-70
2022/04/17 10:47:30;;;;;;;1.83;1.63;;;;;;;-155.54;100.00;57697.75;5008140;28;20161;-70
2022/04/17 10:49:56;;;;;;;2.13;1.58;;;;;;;-155.54;100.00;57697.75;5020565;28;20061;-68
2022/04/17 10:52:32;;;;;;;4.50;1.70;;;;;;;-155.54;100.00;57697.75;5018318;28;20593;-70
2022/04/17 10:55:11;;;;;;;2.20;1.60;;;;;;;-155.54;100.00;57697.75;5017328;28;20136;-69
2022/04/17 10:57:46;;;;;;;3.75;2.00;;;;;;;-155.54;100.00;57697.75;5011372;28;20131;-68
2022/04/17 11:00:25;;;;;;;8.13;4.70;;;;;;;-155.54;100.00;57697.75;5005245;28;20150;-69
2022/04/17 11:02:51;;;;;;;3.03;2.00;;;;;;;-155.54;100.00;57697.75;4997503;28;20804;-68
2022/04/17 11:06:05;;;;;;;2.95;1.70;;;;;;;-155.54;100.00;57697.75;4980813;28;20474;-68
2022/04/17 11:08:20;;;;;;;3.15;1.90;;;;;;;-155.54;100.00;57697.75;4987528;28;20076;-69
2022/04/17 11:10:46;;;;;;;2.15;1.67;;;;;;;-155.54;100.00;57697.75;5001374;28;20333;-70
2022/04/17 11:13:11;;;;;;;1.70;1.60;;;;;;;-155.54;100.00;57697.75;5022072;28;20059;-69
2022/04/17 11:15:37;;;;;;;1.92;1.65;;;;;;;-155.54;100.00;57697.75;5038779;28;20418;-69
2022/04/17 11:18:03;;;;;;;2.60;1.90;;;;;;;-155.54;100.00;57697.75;5030510;28;20118;-69
2022/04/17 11:20:29;;;;;;;2.20;1.75;;;;;;;-155.54;100.00;57697.75;4999048;28;20159;-70
2022/04/17 11:22:55;;;;;;;2.35;1.90;;;;;;;-155.54;100.00;57697.75;4988404;28;20048;-69